KNTD

Point Mugu NAS (Naval Base Ventura Co) Airport

Oxnard, California, USA
METAR KNTD 191757Z 24007KT 10SM CLR 21/14 A2983 RMK AO2 SLP101 T02060139 10206 20111 58001 $
Observed Flight Rules
Sep-19 @ 17:57 UTC (51 minutes ago) Visual Flight Rules
Wind Visibility Clouds
240° at 7 knots 10 miles
  • Clear skies
Temperatures Readings
Current 21°C / 70°F
Dewpoint 14°C / 57°F
Humidity 64%
Altimeter 29.83" Hg
Pressure 1010.1 hPa
Elevation 4
METAR KNTD 191757Z 24007KT 10SM CLR 21/14 A2983 RMK AO2 SLP101 T02060139 10206 20111 58001 $
Observed Flight Rules
Sep-19 @ 17:57 UTC
(51 minutes ago)
VFR
Wind Visibility
240° at 7 knots 10 miles
Clouds
  • Clear skies
Temperature Dewpoint
21°C / 70°F 14°C / 57°F
Humidity Altimeter Pressure
64% 29.83" Hg 1010.1 hPa